Time;durP1;ratioP1;P1;durP2;ratioP2;P2;SDS_P1;SDS_P2;PMS_P1;PMS_P2;Temp;Humidity;BMP_temperature;BMP_pressure;BME280_temperature;BME280_humidity;BME280_pressure;Samples;Min_cycle;Max_cycle;Signal;HPM_P1;HPM_P2
2022/01/28 00:00:31;;;;;;;31.53;14.27;;;3.50;78.20;;;;;;5079228;28;20235;-79
2022/01/28 00:03:06;;;;;;;30.43;12.97;;;3.50;78.00;;;;;;5089602;28;20190;-81
2022/01/28 00:05:36;;;;;;;30.47;13.37;;;3.50;78.10;;;;;;5084419;28;20191;-80
2022/01/28 00:08:06;;;;;;;26.07;11.93;;;3.40;78.20;;;;;;5077397;28;20653;-79
2022/01/28 00:10:38;;;;;;;29.57;13.73;;;3.40;78.00;;;;;;5080983;28;20211;-79
2022/01/28 00:16:26;;;;;;;27.70;12.43;;;3.40;78.00;;;;;;5076690;28;20222;-79
2022/01/28 00:38:24;;;;;;;29.23;13.07;;;3.30;78.90;;;;;;5089814;28;20717;-79
2022/01/28 00:40:53;;;;;;;32.93;13.90;;;3.30;79.30;;;;;;5081167;28;20226;-80
2022/01/28 00:43:21;;;;;;;29.57;12.77;;;3.30;79.30;;;;;;5077932;28;20190;-79
2022/01/28 00:45:51;;;;;;;30.53;12.53;;;3.30;79.20;;;;;;5081245;28;20232;-79
2022/01/28 00:48:19;;;;;;;29.80;14.13;;;3.30;79.50;;;;;;5083666;28;20186;-79
2022/01/28 00:50:48;;;;;;;27.00;12.37;;;3.30;79.40;;;;;;5078129;28;20195;-82
2022/01/28 00:53:16;;;;;;;29.97;12.23;;;3.30;79.40;;;;;;5064834;28;20202;-79
2022/01/28 00:55:44;;;;;;;28.93;13.27;;;3.30;79.30;;;;;;5066264;28;20828;-81
2022/01/28 00:58:13;;;;;;;26.93;12.10;;;3.20;79.40;;;;;;5063336;28;20217;-80
2022/01/28 01:00:41;;;;;;;24.83;12.43;;;3.20;79.50;;;;;;5066117;28;20262;-80
2022/01/28 01:03:11;;;;;;;31.37;12.47;;;3.10;79.50;;;;;;5065079;28;20252;-80
2022/01/28 01:05:40;;;;;;;27.10;11.27;;;3.10;79.50;;;;;;5066745;28;20196;-80
2022/01/28 01:08:08;;;;;;;28.00;12.90;;;3.20;79.40;;;;;;5068431;28;20198;-80
2022/01/28 01:10:37;;;;;;;29.10;11.67;;;3.10;79.40;;;;;;5060174;28;20249;-82
2022/01/28 01:13:05;;;;;;;31.70;13.10;;;3.10;79.40;;;;;;5069417;28;20195;-80
2022/01/28 01:15:37;;;;;;;27.07;13.03;;;3.20;79.30;;;;;;5065812;28;20193;-80
2022/01/28 01:18:13;;;;;;;31.80;12.03;;;3.10;79.20;;;;;;5074084;28;20178;-80
2022/01/28 01:21:00;;;;;;;25.77;11.93;;;3.20;79.20;;;;;;5063053;28;20214;-81
2022/01/28 01:23:31;;;;;;;29.53;12.60;;;3.20;79.20;;;;;;5062709;28;20187;-80
2022/01/28 01:26:07;;;;;;;28.27;12.33;;;3.20;79.30;;;;;;5064547;28;20200;-80
2022/01/28 01:28:38;;;;;;;24.23;12.40;;;3.20;79.20;;;;;;5064879;28;20200;-80
2022/01/28 01:31:10;;;;;;;28.27;13.17;;;3.20;80.10;;;;;;5059550;28;20200;-81
2022/01/28 01:33:43;;;;;;;27.20;12.20;;;3.20;79.20;;;;;;5062493;28;20270;-82
2022/01/28 01:36:13;;;;;;;26.07;11.97;;;3.10;79.40;;;;;;5056212;28;20202;-79
2022/01/28 01:38:42;;;;;;;29.23;13.03;;;3.10;79.20;;;;;;5065017;28;20193;-79
2022/01/28 01:41:15;;;;;;;29.37;12.30;;;3.10;79.40;;;;;;5066474;28;20222;-80
2022/01/28 01:43:59;;;;;;;26.73;12.17;;;3.10;79.50;;;;;;5059699;28;20216;-80
2022/01/28 01:46:39;;;;;;;30.87;12.70;;;3.10;79.50;;;;;;5061244;28;20651;-80
2022/01/28 01:52:02;;;;;;;27.17;12.43;;;3.10;79.60;;;;;;5066341;28;20362;-81
2022/01/28 01:54:34;;;;;;;30.20;12.70;;;3.10;79.70;;;;;;5069218;28;20507;-80
2022/01/28 01:57:03;;;;;;;30.13;12.00;;;3.10;79.70;;;;;;5063744;28;20191;-80
2022/01/28 01:59:32;;;;;;;28.50;12.13;;;3.00;79.70;;;;;;5064292;28;20188;-79
2022/01/28 02:02:00;;;;;;;28.03;11.73;;;3.10;79.50;;;;;;5063463;28;20235;-79
2022/01/28 02:04:29;;;;;;;25.50;12.17;;;3.00;79.50;;;;;;5061854;28;20649;-79
2022/01/28 02:06:59;;;;;;;29.63;12.70;;;3.10;79.50;;;;;;5065707;28;20189;-78
2022/01/28 02:09:28;;;;;;;25.87;11.60;;;3.00;79.40;;;;;;5075204;28;20196;-78
2022/01/28 02:11:56;;;;;;;30.80;12.33;;;3.10;79.40;;;;;;5067317;28;20195;-79
2022/01/28 02:14:25;;;;;;;27.70;11.80;;;3.10;80.10;;;;;;5064195;28;20242;-79
2022/01/28 02:16:53;;;;;;;27.37;12.83;;;3.10;79.30;;;;;;5064925;28;20200;-78
2022/01/28 02:19:21;;;;;;;26.13;11.97;;;3.10;79.40;;;;;;5061357;28;20229;-79
2022/01/28 02:21:52;;;;;;;30.63;11.57;;;3.00;79.30;;;;;;5069665;28;20220;-79
2022/01/28 02:24:26;;;;;;;23.60;11.97;;;3.10;79.40;;;;;;5066369;28;20186;-78
2022/01/28 02:26:54;;;;;;;24.43;11.77;;;3.00;79.50;;;;;;5075435;28;20186;-79
2022/01/28 02:29:29;;;;;;;24.70;10.97;;;3.10;79.50;;;;;;5058906;28;20920;-79
2022/01/28 02:31:58;;;;;;;25.00;11.60;;;3.10;79.40;;;;;;5060775;28;20284;-78
2022/01/28 02:34:26;;;;;;;28.87;12.53;;;3.00;79.50;;;;;;5063174;28;20560;-80
2022/01/28 02:36:56;;;;;;;28.83;12.57;;;3.00;79.40;;;;;;5052553;28;20604;-79
2022/01/28 02:39:25;;;;;;;25.37;11.93;;;3.00;79.50;;;;;;5063448;28;20189;-78
2022/01/28 02:42:01;;;;;;;25.97;11.30;;;3.00;79.40;;;;;;5063638;28;20231;-78
2022/01/28 02:44:43;;;;;;;25.80;10.93;;;3.00;79.20;;;;;;5066990;28;20194;-78
2022/01/28 02:47:15;;;;;;;22.87;11.00;;;3.00;79.30;;;;;;5069060;28;20199;-78
2022/01/28 02:49:45;;;;;;;22.83;12.10;;;2.90;79.30;;;;;;5073048;28;20183;-77
2022/01/28 02:52:23;;;;;;;25.47;11.40;;;2.90;79.40;;;;;;5069678;28;20196;-78
2022/01/28 02:54:51;;;;;;;24.33;10.87;;;2.90;79.40;;;;;;5064614;28;20203;-78
2022/01/28 02:57:25;;;;;;;26.93;11.73;;;2.90;79.30;;;;;;5074732;28;20381;-78
2022/01/28 02:59:53;;;;;;;25.27;11.57;;;2.90;79.30;;;;;;5065032;28;20201;-78
2022/01/28 03:02:22;;;;;;;24.53;10.00;;;2.90;79.20;;;;;;5062663;28;20229;-78
2022/01/28 03:07:36;;;;;;;24.07;11.87;;;2.90;79.10;;;;;;5062925;28;20186;-79
2022/01/28 03:10:27;;;;;;;24.97;11.43;;;2.90;78.90;;;;;;5065193;28;20613;-79
2022/01/28 03:13:13;;;;;;;23.17;10.63;;;3.00;78.90;;;;;;5076427;28;20199;-78
2022/01/28 03:15:45;;;;;;;20.43;9.33;;;2.90;78.80;;;;;;5065163;28;20278;-78
2022/01/28 03:18:17;;;;;;;30.37;12.80;;;2.90;78.70;;;;;;5062482;28;20188;-78
2022/01/28 03:20:58;;;;;;;43.33;17.27;;;2.90;78.60;;;;;;5063530;28;20194;-79
2022/01/28 03:23:28;;;;;;;23.00;11.13;;;2.90;78.70;;;;;;5068214;28;20211;-78
2022/01/28 03:25:56;;;;;;;25.73;12.50;;;2.90;78.70;;;;;;5071661;28;20650;-78
2022/01/28 03:28:25;;;;;;;24.90;12.40;;;2.90;78.70;;;;;;5063984;28;20186;-78
2022/01/28 03:30:53;;;;;;;28.53;14.70;;;2.90;78.80;;;;;;5072953;28;20205;-78
2022/01/28 03:33:21;;;;;;;27.97;13.97;;;2.90;78.90;;;;;;5079425;28;20197;-78
2022/01/28 03:35:50;;;;;;;27.63;12.97;;;2.80;78.80;;;;;;5078893;28;20182;-78
2022/01/28 03:38:18;;;;;;;22.43;11.87;;;2.80;78.80;;;;;;5064819;28;20195;-78
2022/01/28 03:40:49;;;;;;;21.50;10.77;;;2.80;78.80;;;;;;5070975;28;20226;-79
2022/01/28 03:43:18;;;;;;;23.30;11.43;;;2.80;78.80;;;;;;5057840;28;20574;-78
2022/01/28 03:45:46;;;;;;;24.20;11.77;;;2.80;78.80;;;;;;5061751;28;20308;-78
2022/01/28 03:48:14;;;;;;;25.83;11.47;;;2.80;78.70;;;;;;5063400;28;20789;-78
2022/01/28 03:50:43;;;;;;;24.67;11.00;;;2.80;78.70;;;;;;5061691;28;20203;-79
2022/01/28 03:53:11;;;;;;;29.23;12.00;;;2.80;78.70;;;;;;5061127;28;20261;-77
2022/01/28 03:55:39;;;;;;;22.83;10.93;;;2.80;78.50;;;;;;5064395;28;20197;-78
2022/01/28 03:58:09;;;;;;;26.50;12.67;;;2.80;78.40;;;;;;5062714;28;20200;-78
2022/01/28 04:00:37;;;;;;;23.83;11.60;;;2.80;78.40;;;;;;5063082;28;20188;-78
2022/01/28 04:03:10;;;;;;;31.43;12.33;;;2.90;78.30;;;;;;5069903;28;20848;-78
2022/01/28 04:11:25;;;;;;;28.47;12.10;;;2.90;78.20;;;;;;5067536;28;20239;-78
2022/01/28 04:11:36;;;;;;;28.07;12.47;;;2.90;78.00;;;;;;5069145;28;20582;-77
2022/01/28 04:14:11;;;;;;;34.40;14.47;;;2.90;78.00;;;;;;5075360;28;20190;-78
2022/01/28 04:19:26;;;;;;;31.03;12.93;;;2.90;77.90;;;;;;5059276;28;20184;-78
2022/01/28 04:21:54;;;;;;;27.87;11.73;;;2.90;77.70;;;;;;5058959;28;20249;-80
2022/01/28 04:24:23;;;;;;;31.93;14.67;;;2.90;77.70;;;;;;5063504;28;20623;-78
2022/01/28 04:26:51;;;;;;;31.93;13.13;;;2.90;77.60;;;;;;5060638;28;20284;-78
2022/01/28 04:29:21;;;;;;;34.37;13.80;;;2.90;77.60;;;;;;5057414;28;20183;-77
2022/01/28 04:31:49;;;;;;;30.23;13.07;;;2.90;77.70;;;;;;5066135;28;20211;-78
2022/01/28 04:34:21;;;;;;;23.53;11.93;;;2.90;77.60;;;;;;5063213;28;20254;-78
2022/01/28 04:36:59;;;;;;;23.92;10.70;;;2.90;77.70;;;;;;5069050;28;20626;-78
2022/01/28 04:39:34;;;;;;;24.23;10.80;;;2.80;77.80;;;;;;5064634;28;20225;-78
2022/01/28 04:42:12;;;;;;;27.97;11.27;;;2.80;77.70;;;;;;5053365;28;20198;-78
2022/01/28 04:44:53;;;;;;;28.13;12.47;;;2.90;77.80;;;;;;5067495;28;20266;-77
2022/01/28 04:47:28;;;;;;;23.47;11.27;;;2.90;78.00;;;;;;5071146;28;20668;-78
2022/01/28 04:50:06;;;;;;;24.83;10.67;;;2.80;78.20;;;;;;5069087;28;20194;-77
2022/01/28 04:52:53;;;;;;;23.70;11.20;;;2.90;78.20;;;;;;5075504;28;20200;-79
2022/01/28 04:58:19;;;;;;;27.77;10.97;;;2.80;78.40;;;;;;5054283;28;20195;-77
2022/01/28 05:00:59;;;;;;;24.40;10.57;;;2.90;78.40;;;;;;5068183;28;20410;-78
2022/01/28 05:03:42;;;;;;;24.53;10.67;;;2.90;78.50;;;;;;5065827;28;20210;-78
2022/01/28 05:09:49;;;;;;;25.60;11.67;;;2.90;78.50;;;;;;5070593;28;20183;-78
2022/01/28 05:15:32;;;;;;;24.33;10.57;;;3.00;78.50;;;;;;5064840;28;20204;-77
2022/01/28 05:26:34;;;;;;;27.50;12.23;;;3.10;78.70;;;;;;5017968;28;20207;-78
2022/01/28 05:29:02;;;;;;;22.37;10.40;;;3.10;78.70;;;;;;5071505;28;20195;-78
2022/01/28 05:31:30;;;;;;;31.03;12.07;;;3.20;78.80;;;;;;5071858;28;20190;-79
2022/01/28 05:34:02;;;;;;;29.07;13.27;;;3.20;78.80;;;;;;5061201;28;20192;-78
2022/01/28 05:36:31;;;;;;;26.37;11.30;;;3.20;78.60;;;;;;5066015;28;20189;-78
2022/01/28 05:38:59;;;;;;;26.00;10.00;;;3.30;78.60;;;;;;5070224;28;20203;-79
2022/01/28 05:41:27;;;;;;;28.60;12.77;;;3.20;78.50;;;;;;5064436;28;20228;-78
2022/01/28 05:43:56;;;;;;;25.07;11.60;;;3.20;78.50;;;;;;5060545;28;20214;-78
2022/01/28 05:46:27;;;;;;;27.87;11.70;;;3.20;78.50;;;;;;5070512;28;20858;-78
2022/01/28 05:48:57;;;;;;;25.10;11.67;;;3.20;78.30;;;;;;5063977;28;20944;-78
2022/01/28 05:51:27;;;;;;;29.23;12.07;;;3.20;78.30;;;;;;5068642;28;20204;-77
2022/01/28 05:54:02;;;;;;;24.50;11.23;;;3.20;78.20;;;;;;5063232;28;20228;-79
2022/01/28 05:56:31;;;;;;;27.27;11.93;;;3.20;78.20;;;;;;5066896;28;20202;-78
2022/01/28 05:58:59;;;;;;;33.47;12.57;;;3.30;78.30;;;;;;5065361;28;20201;-78
2022/01/28 06:01:28;;;;;;;24.57;12.47;;;3.30;78.30;;;;;;5060636;28;20192;-78
2022/01/28 06:03:57;;;;;;;31.47;12.13;;;3.40;78.30;;;;;;5068134;28;20211;-78
2022/01/28 06:06:27;;;;;;;25.27;12.27;;;3.40;78.20;;;;;;5069509;28;20188;-78
2022/01/28 06:08:56;;;;;;;28.13;11.77;;;3.40;78.20;;;;;;5075111;28;20190;-79
2022/01/28 06:11:25;;;;;;;24.70;12.07;;;3.50;78.20;;;;;;5068477;28;20189;-78
2022/01/28 06:13:54;;;;;;;28.77;12.00;;;3.40;78.10;;;;;;5066839;28;20195;-82
2022/01/28 06:16:22;;;;;;;35.33;13.20;;;3.50;78.00;;;;;;5063394;28;20192;-78
2022/01/28 06:18:50;;;;;;;30.20;13.73;;;3.50;78.00;;;;;;5063896;28;20817;-78
2022/01/28 06:21:20;;;;;;;25.77;12.17;;;3.50;78.20;;;;;;5066582;28;20957;-78
2022/01/28 06:23:51;;;;;;;29.40;11.93;;;3.50;78.20;;;;;;5064709;28;20218;-79
2022/01/28 06:26:20;;;;;;;32.17;12.00;;;3.50;78.00;;;;;;5073047;28;20188;-78
2022/01/28 06:28:48;;;;;;;28.87;12.77;;;3.50;77.90;;;;;;5076727;28;20194;-78
2022/01/28 06:31:17;;;;;;;29.43;15.50;;;3.60;78.00;;;;;;5066220;28;20557;-79
2022/01/28 06:33:49;;;;;;;27.80;13.97;;;3.60;78.00;;;;;;5076645;28;20635;-78
2022/01/28 06:36:20;;;;;;;29.43;12.63;;;3.60;77.90;;;;;;5080003;28;20197;-78
2022/01/28 06:38:49;;;;;;;28.67;12.33;;;3.60;77.90;;;;;;5073918;28;20245;-78
2022/01/28 06:41:18;;;;;;;34.20;14.17;;;3.70;77.80;;;;;;5071495;28;20261;-78
2022/01/28 06:43:46;;;;;;;29.90;14.13;;;3.70;77.70;;;;;;5072182;28;20881;-79
2022/01/28 06:46:14;;;;;;;27.80;14.30;;;3.70;77.70;;;;;;5065793;28;20208;-78
2022/01/28 06:48:43;;;;;;;36.47;15.40;;;3.70;77.70;;;;;;5064892;28;20205;-78
2022/01/28 06:51:11;;;;;;;30.00;13.33;;;3.70;77.60;;;;;;5076293;28;20226;-77
2022/01/28 06:53:42;;;;;;;35.20;15.03;;;3.80;77.70;;;;;;5079052;28;20219;-78
2022/01/28 06:56:12;;;;;;;31.47;14.53;;;3.80;77.70;;;;;;5078449;28;20283;-78
2022/01/28 06:58:40;;;;;;;36.43;15.17;;;3.80;77.70;;;;;;5071845;28;20198;-78
2022/01/28 07:01:09;;;;;;;36.47;15.07;;;3.90;77.70;;;;;;5082509;28;20203;-78
2022/01/28 07:03:38;;;;;;;31.20;13.63;;;3.90;77.70;;;;;;5086460;28;20223;-78
2022/01/28 07:06:06;;;;;;;30.17;14.50;;;3.90;77.80;;;;;;5073264;28;20193;-78
2022/01/28 07:08:35;;;;;;;34.47;14.83;;;4.00;77.90;;;;;;5077909;28;20202;-77
2022/01/28 07:11:03;;;;;;;27.47;13.70;;;4.00;78.20;;;;;;5074078;28;20210;-78
2022/01/28 07:13:33;;;;;;;33.13;15.77;;;4.00;78.20;;;;;;5064359;28;20200;-78
2022/01/28 07:16:01;;;;;;;34.73;13.30;;;4.10;78.30;;;;;;5064769;28;20229;-79
2022/01/28 07:18:29;;;;;;;33.90;12.93;;;4.10;78.40;;;;;;5065702;28;20665;-79
2022/01/28 07:20:58;;;;;;;32.37;14.13;;;4.20;78.30;;;;;;5062204;28;20864;-79
2022/01/28 07:23:26;;;;;;;29.40;12.80;;;4.30;78.30;;;;;;5080352;28;20906;-79
2022/01/28 07:25:54;;;;;;;31.13;13.87;;;4.30;78.20;;;;;;5077093;28;20277;-79
2022/01/28 07:28:25;;;;;;;34.93;14.40;;;4.40;78.10;;;;;;5063434;28;20210;-79
2022/01/28 07:30:55;;;;;;;29.90;12.57;;;4.40;78.10;;;;;;5067017;28;20202;-80
2022/01/28 07:33:23;;;;;;;26.00;13.00;;;4.50;78.00;;;;;;5065950;28;20654;-79
2022/01/28 07:35:52;;;;;;;33.20;12.77;;;4.50;79.00;;;;;;5063860;28;20247;-80
2022/01/28 07:38:20;;;;;;;28.27;13.23;;;4.60;77.80;;;;;;5065405;28;20209;-80
2022/01/28 07:40:48;;;;;;;28.73;12.67;;;4.70;77.60;;;;;;5064163;28;20253;-79
2022/01/28 07:43:17;;;;;;;27.20;13.73;;;4.70;77.30;;;;;;5064416;28;20195;-79
2022/01/28 07:45:45;;;;;;;28.67;12.93;;;4.80;77.20;;;;;;5062941;28;20226;-80
2022/01/28 07:48:15;;;;;;;27.10;13.40;;;4.80;76.90;;;;;;5063480;28;20205;-80
2022/01/28 07:50:43;;;;;;;35.40;15.10;;;5.00;76.90;;;;;;5082364;28;20193;-80
2022/01/28 07:53:15;;;;;;;34.83;14.47;;;5.10;76.70;;;;;;5080529;28;20198;-80
2022/01/28 07:55:44;;;;;;;28.60;13.43;;;5.20;76.70;;;;;;5062814;28;20182;-80
2022/01/28 07:58:12;;;;;;;30.13;14.33;;;5.20;76.40;;;;;;5070736;28;20186;-80
2022/01/28 08:00:42;;;;;;;31.47;14.83;;;5.30;76.00;;;;;;5065213;28;20197;-80
2022/01/28 08:03:10;;;;;;;33.67;13.10;;;5.40;75.80;;;;;;5082974;28;20264;-80
2022/01/28 08:05:40;;;;;;;30.17;14.00;;;5.40;75.50;;;;;;5082145;28;20249;-81
2022/01/28 08:08:12;;;;;;;29.33;13.67;;;5.50;75.50;;;;;;5081074;28;20619;-80
2022/01/28 08:11:09;;;;;;;32.63;15.32;;;5.50;75.30;;;;;;5051407;28;20528;-80
2022/01/28 08:14:36;;;;;;;35.20;14.10;;;5.60;75.40;;;;;;5029442;28;20286;-81
2022/01/28 08:17:30;;;;;;;32.77;13.83;;;5.60;74.60;;;;;;5352193;23;20483;-82
2022/01/28 08:20:20;;;;;;;31.23;14.50;;;5.60;74.30;;;;;;5015467;28;20266;-81
2022/01/28 08:23:18;;;;;;;32.03;14.33;;;5.70;74.30;;;;;;5008165;28;20196;-81
2022/01/28 08:26:23;;;;;;;30.60;13.40;;;5.80;74.00;;;;;;5004695;28;20308;-81
2022/01/28 08:29:39;;;;;;;31.17;13.10;;;5.80;73.50;;;;;;5003376;28;20207;-81
2022/01/28 08:32:27;;;;;;;32.10;13.67;;;5.90;73.60;;;;;;5022829;28;20203;-82
2022/01/28 08:35:15;;;;;;;33.40;13.70;;;6.00;73.50;;;;;;5013329;28;20204;-79
2022/01/28 08:37:54;;;;;;;28.40;13.00;;;6.00;73.10;;;;;;5003285;28;20661;-80
2022/01/28 08:40:29;;;;;;;26.87;13.63;;;6.00;73.00;;;;;;5019462;28;20189;-80
2022/01/28 08:42:58;;;;;;;32.23;13.33;;;6.10;73.10;;;;;;5006769;28;20219;-79
2022/01/28 08:58:40;;;;;;;29.97;13.47;;;6.20;72.30;;;;;;5101283;27;21039;-78
2022/01/28 09:01:10;;;;;;;29.83;13.03;;;6.60;72.20;;;;;;5096693;28;20198;-79
2022/01/28 09:03:39;;;;;;;24.63;12.70;;;6.60;71.30;;;;;;5088638;28;20709;-78
2022/01/28 09:06:07;;;;;;;28.20;13.00;;;6.60;71.10;;;;;;5081043;28;20200;-80
2022/01/28 09:08:35;;;;;;;27.30;12.63;;;6.60;70.80;;;;;;5078257;28;20188;-78
2022/01/28 09:11:30;;;;;;;28.37;13.33;;;6.60;70.90;;;;;;5079426;28;20230;-77
2022/01/28 09:13:59;;;;;;;28.37;13.33;;;6.70;70.80;;;;;;5079710;28;20195;-78
2022/01/28 09:16:28;;;;;;;29.07;12.57;;;6.80;71.00;;;;;;5096809;28;20220;-78
2022/01/28 09:18:57;;;;;;;25.30;12.57;;;6.90;70.80;;;;;;5077600;28;20278;-80
2022/01/28 09:21:26;;;;;;;28.60;12.90;;;6.90;70.70;;;;;;5083135;28;20279;-78
2022/01/28 09:23:54;;;;;;;28.30;12.57;;;6.90;70.40;;;;;;5091147;28;20197;-78
2022/01/28 09:26:43;;;;;;;26.50;12.00;;;7.00;70.50;;;;;;5079518;28;20196;-77
2022/01/28 09:29:13;;;;;;;30.87;12.47;;;7.10;70.10;;;;;;5080584;28;20330;-78
2022/01/28 09:31:41;;;;;;;23.23;12.00;;;7.10;70.20;;;;;;5078485;28;20216;-79
2022/01/28 09:34:09;;;;;;;31.07;12.30;;;7.20;70.20;;;;;;5087051;28;20899;-79
2022/01/28 09:36:39;;;;;;;23.60;12.33;;;7.30;70.90;;;;;;5086612;28;20581;-79
2022/01/28 09:39:08;;;;;;;25.87;11.77;;;7.40;70.00;;;;;;5086626;28;20203;-80
2022/01/28 09:41:37;;;;;;;26.83;12.20;;;7.50;69.70;;;;;;5079382;28;20203;-77
2022/01/28 09:44:09;;;;;;;26.23;12.83;;;7.50;69.70;;;;;;5080247;28;20190;-79
2022/01/28 09:46:40;;;;;;;27.73;12.67;;;7.60;69.60;;;;;;5099960;28;20215;-79
2022/01/28 09:49:08;;;;;;;24.53;11.90;;;7.70;69.50;;;;;;5089494;28;20185;-78
2022/01/28 09:51:37;;;;;;;25.27;11.47;;;7.80;69.00;;;;;;5080738;28;20199;-78
2022/01/28 09:54:05;;;;;;;24.80;12.13;;;7.90;69.10;;;;;;5081224;28;20196;-76
2022/01/28 09:56:33;;;;;;;24.07;11.77;;;7.90;68.30;;;;;;5091847;28;20224;-78
2022/01/28 09:59:02;;;;;;;29.63;11.77;;;8.00;68.50;;;;;;5070911;28;20192;-75
2022/01/28 10:01:30;;;;;;;27.57;12.77;;;8.10;67.60;;;;;;5059175;28;20202;-79
2022/01/28 10:04:05;;;;;;;29.00;13.90;;;8.10;67.40;;;;;;5066528;28;20186;-79
2022/01/28 10:06:35;;;;;;;30.00;12.93;;;8.20;67.50;;;;;;5064781;28;20192;-80
2022/01/28 10:09:08;;;;;;;26.33;11.43;;;8.30;67.50;;;;;;5067919;28;20197;-77
2022/01/28 10:11:38;;;;;;;23.30;11.53;;;8.40;67.60;;;;;;5072294;28;20194;-77
2022/01/28 10:14:12;;;;;;;26.33;12.60;;;8.50;67.20;;;;;;5067497;28;20183;-77
2022/01/28 10:16:41;;;;;;;30.40;12.60;;;8.60;66.90;;;;;;5067614;28;20213;-77
2022/01/28 10:19:12;;;;;;;26.20;11.80;;;8.70;67.80;;;;;;5078221;28;20213;-77
2022/01/28 10:21:42;;;;;;;25.93;11.70;;;8.80;67.10;;;;;;5076662;28;20197;-76
2022/01/28 10:24:13;;;;;;;26.50;10.67;;;8.90;66.80;;;;;;5077025;28;20178;-74
2022/01/28 10:26:45;;;;;;;19.03;8.20;;;9.00;66.70;;;;;;5070573;28;20592;-74
2022/01/28 10:29:15;;;;;;;20.20;9.60;;;9.10;65.50;;;;;;5067137;28;20182;-75
2022/01/28 10:31:50;;;;;;;22.37;10.27;;;9.20;65.30;;;;;;5071785;28;20236;-76
2022/01/28 10:34:22;;;;;;;21.47;9.27;;;9.30;64.70;;;;;;5064360;28;20673;-76
2022/01/28 10:36:53;;;;;;;21.93;9.70;;;9.40;64.10;;;;;;5067708;28;20686;-76
2022/01/28 10:39:24;;;;;;;18.07;9.70;;;9.50;63.80;;;;;;5068118;28;20187;-77
2022/01/28 10:41:55;;;;;;;20.57;10.03;;;9.50;63.40;;;;;;5073689;28;20178;-76
2022/01/28 10:44:25;;;;;;;21.30;10.07;;;9.60;63.00;;;;;;5077046;28;20651;-78
2022/01/28 10:47:00;;;;;;;23.50;10.13;;;9.70;62.80;;;;;;5067812;28;20179;-76
2022/01/28 10:49:35;;;;;;;21.57;9.77;;;9.70;63.00;;;;;;5074812;28;20810;-78
2022/01/28 10:52:11;;;;;;;19.33;9.80;;;9.80;62.80;;;;;;5066883;28;20194;-79
2022/01/28 10:54:42;;;;;;;25.83;9.13;;;9.90;63.00;;;;;;5065240;28;20178;-77
2022/01/28 10:57:11;;;;;;;20.77;9.40;;;10.00;63.30;;;;;;5064459;28;20927;-77
2022/01/28 10:59:41;;;;;;;20.60;10.43;;;10.10;63.00;;;;;;5066398;28;20246;-78
2022/01/28 11:02:10;;;;;;;19.73;10.70;;;10.20;63.10;;;;;;5069033;28;20188;-78
2022/01/28 11:04:43;;;;;;;19.90;9.97;;;10.30;63.50;;;;;;5082667;28;20284;-79
2022/01/28 11:07:12;;;;;;;25.20;10.83;;;10.40;63.10;;;;;;5066440;28;20178;-77
2022/01/28 11:09:41;;;;;;;22.53;10.43;;;10.60;62.60;;;;;;5069046;28;20195;-77
2022/01/28 11:12:10;;;;;;;21.20;9.90;;;10.60;61.70;;;;;;5064311;28;20194;-78
2022/01/28 11:14:39;;;;;;;19.63;9.47;;;10.70;61.60;;;;;;5064970;28;20194;-77
2022/01/28 11:17:08;;;;;;;16.43;9.00;;;10.80;61.50;;;;;;5065644;28;20748;-78
2022/01/28 11:19:39;;;;;;;19.13;9.10;;;10.90;61.60;;;;;;5067445;28;20186;-78
2022/01/28 11:22:16;;;;;;;19.83;9.27;;;11.00;61.30;;;;;;5066936;28;20186;-76
2022/01/28 11:25:07;;;;;;;20.73;9.50;;;11.10;60.90;;;;;;5066435;28;20520;-77
2022/01/28 11:27:38;;;;;;;17.93;8.33;;;11.20;60.70;;;;;;5067061;28;20228;-78
2022/01/28 11:30:26;;;;;;;18.53;8.97;;;11.30;60.50;;;;;;5070549;28;20240;-79
2022/01/28 11:33:03;;;;;;;17.60;7.93;;;11.50;60.90;;;;;;5058854;28;20216;-78
2022/01/28 11:35:34;;;;;;;16.40;8.33;;;11.50;60.20;;;;;;5081411;28;20217;-77
2022/01/28 11:38:37;;;;;;;18.83;8.97;;;11.50;59.80;;;;;;5071915;28;20210;-77
2022/01/28 11:41:09;;;;;;;22.03;8.97;;;11.70;59.80;;;;;;5066488;28;20182;-78
2022/01/28 11:43:47;;;;;;;19.47;8.90;;;11.70;59.00;;;;;;5069450;28;20190;-77
2022/01/28 11:46:21;;;;;;;18.70;8.07;;;11.80;58.80;;;;;;5067614;28;20183;-78
2022/01/28 11:49:25;;;;;;;20.30;9.83;;;11.90;59.20;;;;;;5077169;28;20746;-78
2022/01/28 11:51:54;;;;;;;18.73;8.80;;;12.10;59.40;;;;;;5058450;28;20194;-78
2022/01/28 11:54:38;;;;;;;17.40;8.77;;;12.20;59.40;;;;;;5065462;28;20221;-78
2022/01/28 11:57:14;;;;;;;22.03;9.87;;;12.30;59.20;;;;;;5063445;28;20215;-77
2022/01/28 11:59:43;;;;;;;17.93;9.13;;;12.40;58.90;;;;;;5076573;28;20228;-78
2022/01/28 12:02:23;;;;;;;19.83;9.47;;;12.50;59.00;;;;;;5074632;28;20247;-76
2022/01/28 12:04:52;;;;;;;25.10;9.80;;;12.60;58.70;;;;;;5062662;28;20190;-77
2022/01/28 12:07:24;;;;;;;20.33;9.53;;;12.70;58.60;;;;;;5071081;28;20197;-77
2022/01/28 12:09:55;;;;;;;19.03;8.63;;;12.80;58.40;;;;;;5064638;28;20189;-77
2022/01/28 12:12:56;;;;;;;17.60;8.63;;;12.80;57.60;;;;;;5063874;28;20222;-76
2022/01/28 12:15:25;;;;;;;19.43;10.00;;;12.80;57.70;;;;;;5069233;28;20181;-77
2022/01/28 12:18:06;;;;;;;15.73;8.30;;;12.80;57.60;;;;;;5064791;28;20298;-77
2022/01/28 12:20:45;;;;;;;15.53;8.47;;;13.00;57.60;;;;;;5063769;28;20221;-77
2022/01/28 12:23:39;;;;;;;21.50;8.83;;;13.10;56.80;;;;;;5073436;28;20285;-76
2022/01/28 12:26:11;;;;;;;16.50;8.27;;;13.10;57.10;;;;;;5073439;28;20186;-77
2022/01/28 12:28:53;;;;;;;17.53;8.10;;;13.20;57.20;;;;;;5074507;28;20178;-75
2022/01/28 12:31:28;;;;;;;18.70;8.93;;;13.30;57.00;;;;;;5062622;28;20661;-76
2022/01/28 12:33:59;;;;;;;16.13;8.50;;;13.30;56.90;;;;;;5064113;28;20209;-74
2022/01/28 12:36:30;;;;;;;16.50;8.47;;;13.30;56.90;;;;;;5069998;28;20187;-74
2022/01/28 12:41:55;;;;;;;16.60;8.53;;;13.40;57.00;;;;;;5060776;28;20245;-75
2022/01/28 12:44:24;;;;;;;16.63;8.27;;;13.50;56.80;;;;;;5055131;28;20750;-73
2022/01/28 12:46:58;;;;;;;21.20;10.27;;;13.50;56.70;;;;;;5063541;28;20203;-74
2022/01/28 12:49:28;;;;;;;22.20;10.83;;;13.60;56.20;;;;;;5069057;28;20182;-75
2022/01/28 12:51:59;;;;;;;23.20;9.97;;;13.70;56.40;;;;;;5058549;28;20263;-73
2022/01/28 12:54:35;;;;;;;24.13;9.47;;;13.80;56.40;;;;;;5063157;28;20201;-73
2022/01/28 12:57:07;;;;;;;23.20;9.77;;;13.80;56.50;;;;;;5063024;28;20236;-74
2022/01/28 12:59:36;;;;;;;13.33;6.80;;;13.90;56.10;;;;;;5068759;28;20213;-73
2022/01/28 13:02:04;;;;;;;16.47;5.70;;;14.00;55.80;;;;;;5056673;28;20198;-73
2022/01/28 13:04:50;;;;;;;9.70;4.60;;;14.10;54.00;;;;;;5062984;28;20290;-75
2022/01/28 13:10:06;;;;;;;11.93;4.57;;;14.20;53.20;;;;;;5061190;28;20184;-75
2022/01/28 13:12:36;;;;;;;7.53;4.43;;;14.30;52.50;;;;;;5053534;28;20592;-75
2022/01/28 13:15:07;;;;;;;10.40;4.30;;;14.50;53.20;;;;;;5061658;28;20256;-75
2022/01/28 13:17:35;;;;;;;9.87;4.50;;;14.70;53.30;;;;;;5053533;28;20188;-75
2022/01/28 13:20:09;;;;;;;8.83;4.83;;;14.80;52.80;;;;;;5054025;28;20230;-75
2022/01/28 13:22:39;;;;;;;10.60;4.63;;;14.70;51.80;;;;;;5058110;28;20624;-74
2022/01/28 13:25:17;;;;;;;8.00;4.53;;;14.70;51.50;;;;;;5064889;28;20191;-75
2022/01/28 13:27:50;;;;;;;7.83;3.63;;;14.70;51.80;;;;;;5067241;28;20182;-76
2022/01/28 13:30:19;;;;;;;9.25;4.35;;;14.60;51.60;;;;;;5061476;28;20533;-75
2022/01/28 13:32:49;;;;;;;9.20;4.03;;;14.50;51.50;;;;;;5058276;28;20214;-75
2022/01/28 13:35:19;;;;;;;10.17;4.27;;;14.50;51.60;;;;;;5064110;28;20313;-75
2022/01/28 13:37:49;;;;;;;8.50;3.97;;;14.50;51.90;;;;;;5046466;28;20187;-76
2022/01/28 13:40:33;;;;;;;12.10;3.97;;;14.40;52.00;;;;;;5057857;28;20431;-76
2022/01/28 13:43:06;;;;;;;11.07;4.53;;;14.40;52.30;;;;;;5060554;28;20213;-76
2022/01/28 13:45:39;;;;;;;12.10;4.20;;;14.50;52.40;;;;;;5057334;28;20190;-75
2022/01/28 13:48:09;;;;;;;15.83;4.33;;;14.70;52.40;;;;;;5060921;28;20309;-76
2022/01/28 13:50:41;;;;;;;13.20;4.50;;;15.10;51.60;;;;;;5066385;28;20239;-76
2022/01/28 13:56:13;;;;;;;9.83;4.73;;;16.80;49.20;;;;;;5059707;28;20202;-76
2022/01/28 13:58:51;;;;;;;9.37;4.70;;;17.30;47.80;;;;;;5060086;28;20291;-78
2022/01/28 14:01:21;;;;;;;8.60;4.13;;;17.30;48.40;;;;;;5053597;28;20277;-76
2022/01/28 14:03:54;;;;;;;13.63;5.10;;;18.80;46.50;;;;;;5051217;28;20191;-77
2022/01/28 14:06:25;;;;;;;9.73;4.63;;;18.30;46.20;;;;;;5062114;28;20235;-76
2022/01/28 14:09:05;;;;;;;14.70;4.60;;;17.70;47.20;;;;;;5073071;28;20202;-76
2022/01/28 14:11:37;;;;;;;13.07;5.13;;;17.30;47.90;;;;;;5073738;28;20190;-76
2022/01/28 14:14:12;;;;;;;11.43;4.10;;;17.00;48.60;;;;;;5071934;28;20252;-74
2022/01/28 14:16:41;;;;;;;9.43;2.57;;;16.70;47.20;;;;;;5061974;28;20193;-73
2022/01/28 14:19:10;;;;;;;9.13;1.93;;;17.10;45.40;;;;;;5067242;28;20225;-75